sensor_id;sensor_type;location;lat;lon;timestamp;pressure;altitude;pressure_sealevel;temperature;humidity
57442;BME280;43284;47.042;15.498;2023-04-07T00:01:53;97103.75;;;-0.15;62.58
57442;BME280;43284;47.042;15.498;2023-04-07T00:04:19;97102.88;;;-0.15;61.04
57442;BME280;43284;47.042;15.498;2023-04-07T00:06:45;97109.06;;;-0.43;63.43
57442;BME280;43284;47.042;15.498;2023-04-07T00:09:10;97104.75;;;-0.34;63.21
57442;BME280;43284;47.042;15.498;2023-04-07T00:11:36;97103.03;;;-0.35;62.14
57442;BME280;43284;47.042;15.498;2023-04-07T00:14:02;97104.72;;;-0.30;62.26
57442;BME280;43284;47.042;15.498;2023-04-07T00:16:27;97106.47;;;-0.35;64.19
57442;BME280;43284;47.042;15.498;2023-04-07T00:18:53;97103.09;;;-0.46;62.32
57442;BME280;43284;47.042;15.498;2023-04-07T00:21:18;97105.63;;;-0.40;62.41
57442;BME280;43284;47.042;15.498;2023-04-07T00:23:44;97097.94;;;-0.46;62.09
57442;BME280;43284;47.042;15.498;2023-04-07T00:26:11;97098.78;;;-0.44;62.88
57442;BME280;43284;47.042;15.498;2023-04-07T00:28:36;97098.81;;;-0.49;62.98
57442;BME280;43284;47.042;15.498;2023-04-07T00:31:02;97099.69;;;-0.50;63.53
57442;BME280;43284;47.042;15.498;2023-04-07T00:33:27;97087.75;;;-0.57;64.12
57442;BME280;43284;47.042;15.498;2023-04-07T00:35:53;97086.06;;;-0.56;63.84
57442;BME280;43284;47.042;15.498;2023-04-07T00:38:18;97087.75;;;-0.57;64.80
57442;BME280;43284;47.042;15.498;2023-04-07T00:40:44;97089.47;;;-0.56;65.18
57442;BME280;43284;47.042;15.498;2023-04-07T00:43:10;97085.22;;;-0.58;64.81
57442;BME280;43284;47.042;15.498;2023-04-07T00:45:36;97082.59;;;-0.54;65.06
57442;BME280;43284;47.042;15.498;2023-04-07T00:48:03;97085.16;;;-0.48;66.09
57442;BME280;43284;47.042;15.498;2023-04-07T00:50:28;97081.69;;;-0.48;65.08
57442;BME280;43284;47.042;15.498;2023-04-07T00:52:54;97079.97;;;-0.46;66.56
57442;BME280;43284;47.042;15.498;2023-04-07T00:55:21;97083.44;;;-0.53;66.28
57442;BME280;43284;47.042;15.498;2023-04-07T00:57:47;97077.44;;;-0.49;66.23
57442;BME280;43284;47.042;15.498;2023-04-07T01:00:13;97077.47;;;-0.57;66.08
57442;BME280;43284;47.042;15.498;2023-04-07T01:05:25;97068.91;;;-0.53;66.11
57442;BME280;43284;47.042;15.498;2023-04-07T01:16:28;97082.66;;;-0.66;66.69
57442;BME280;43284;47.042;15.498;2023-04-07T01:18:56;97073.28;;;-0.67;66.84
57442;BME280;43284;47.042;15.498;2023-04-07T01:21:27;97074.97;;;-0.65;66.33
57442;BME280;43284;47.042;15.498;2023-04-07T01:26:31;97066.53;;;-0.85;66.14
57442;BME280;43284;47.042;15.498;2023-04-07T01:32:16;97060.50;;;-0.81;66.17
57442;BME280;43284;47.042;15.498;2023-04-07T01:34:42;97058.81;;;-0.84;64.57
57442;BME280;43284;47.042;15.498;2023-04-07T01:37:10;97062.22;;;-0.81;64.68
57442;BME280;43284;47.042;15.498;2023-04-07T01:39:37;97066.50;;;-0.82;64.25
57442;BME280;43284;47.042;15.498;2023-04-07T01:42:04;97064.00;;;-0.94;65.73
57442;BME280;43284;47.042;15.498;2023-04-07T01:44:31;97058.84;;;-0.87;65.01
57442;BME280;43284;47.042;15.498;2023-04-07T01:46:58;97057.13;;;-0.92;64.95
57442;BME280;43284;47.042;15.498;2023-04-07T01:49:25;97059.69;;;-0.85;66.25
57442;BME280;43284;47.042;15.498;2023-04-07T01:51:52;97059.69;;;-0.88;65.21
57442;BME280;43284;47.042;15.498;2023-04-07T01:54:19;97052.00;;;-0.91;66.05
57442;BME280;43284;47.042;15.498;2023-04-07T01:56:45;97054.56;;;-0.89;66.73
57442;BME280;43284;47.042;15.498;2023-04-07T01:59:11;97052.91;;;-1.01;66.13
57442;BME280;43284;47.042;15.498;2023-04-07T02:01:37;97058.94;;;-1.10;66.91
57442;BME280;43284;47.042;15.498;2023-04-07T02:06:52;97055.47;;;-1.01;67.71
57442;BME280;43284;47.042;15.498;2023-04-07T02:09:20;97048.63;;;-0.97;66.63
57442;BME280;43284;47.042;15.498;2023-04-07T02:11:48;97048.66;;;-1.02;66.49
57442;BME280;43284;47.042;15.498;2023-04-07T02:14:15;97046.91;;;-0.97;66.92
57442;BME280;43284;47.042;15.498;2023-04-07T02:16:42;97052.88;;;-0.96;67.93
57442;BME280;43284;47.042;15.498;2023-04-07T02:19:09;97049.47;;;-0.94;67.15
57442;BME280;43284;47.042;15.498;2023-04-07T02:21:35;97049.44;;;-0.92;67.15
57442;BME280;43284;47.042;15.498;2023-04-07T02:24:04;97056.31;;;-0.99;67.88
57442;BME280;43284;47.042;15.498;2023-04-07T02:26:37;97048.63;;;-0.99;67.87
57442;BME280;43284;47.042;15.498;2023-04-07T02:29:05;97045.22;;;-1.06;67.94
57442;BME280;43284;47.042;15.498;2023-04-07T02:31:31;97046.94;;;-1.01;69.17
57442;BME280;43284;47.042;15.498;2023-04-07T02:33:56;97044.38;;;-1.01;68.24
57442;BME280;43284;47.042;15.498;2023-04-07T02:36:22;97046.03;;;-0.93;68.47
57442;BME280;43284;47.042;15.498;2023-04-07T02:38:48;97049.44;;;-0.89;67.22
57442;BME280;43284;47.042;15.498;2023-04-07T02:41:13;97046.91;;;-0.95;67.73
57442;BME280;43284;47.042;15.498;2023-04-07T02:43:39;97047.00;;;-1.18;68.85
57442;BME280;43284;47.042;15.498;2023-04-07T02:46:04;97043.53;;;-1.08;68.50
57442;BME280;43284;47.042;15.498;2023-04-07T02:48:30;97046.09;;;-1.04;67.97
57442;BME280;43284;47.042;15.498;2023-04-07T02:50:55;97042.69;;;-1.07;68.01
57442;BME280;43284;47.042;15.498;2023-04-07T02:53:21;97040.97;;;-1.00;67.81
57442;BME280;43284;47.042;15.498;2023-04-07T02:55:46;97041.78;;;-1.03;67.67
57442;BME280;43284;47.042;15.498;2023-04-07T02:58:12;97031.56;;;-1.05;67.74
57442;BME280;43284;47.042;15.498;2023-04-07T03:00:37;97034.97;;;-1.04;67.73
57442;BME280;43284;47.042;15.498;2023-04-07T03:03:03;97034.09;;;-1.01;67.83
57442;BME280;43284;47.042;15.498;2023-04-07T03:05:28;97028.13;;;-1.05;67.71
57442;BME280;43284;47.042;15.498;2023-04-07T03:07:54;97027.28;;;-1.06;67.35
57442;BME280;43284;47.042;15.498;2023-04-07T03:10:20;97023.00;;;-1.05;68.15
57442;BME280;43284;47.042;15.498;2023-04-07T03:12:45;97020.34;;;-0.87;68.46
57442;BME280;43284;47.042;15.498;2023-04-07T03:15:11;97013.59;;;-1.06;68.40
57442;BME280;43284;47.042;15.498;2023-04-07T03:17:36;97016.22;;;-1.17;68.81
57442;BME280;43284;47.042;15.498;2023-04-07T03:20:02;97012.00;;;-1.24;69.62
57442;BME280;43284;47.042;15.498;2023-04-07T03:22:27;97010.25;;;-1.17;69.53
57442;BME280;43284;47.042;15.498;2023-04-07T03:24:53;97012.78;;;-1.14;70.24
57442;BME280;43284;47.042;15.498;2023-04-07T03:27:18;97011.09;;;-1.18;70.16
57442;BME280;43284;47.042;15.498;2023-04-07T03:29:44;97003.41;;;-1.15;70.14
57442;BME280;43284;47.042;15.498;2023-04-07T03:32:11;97009.34;;;-1.10;70.05
57442;BME280;43284;47.042;15.498;2023-04-07T03:34:36;97004.22;;;-1.09;69.83
57442;BME280;43284;47.042;15.498;2023-04-07T03:37:02;97010.16;;;-1.05;70.48
57442;BME280;43284;47.042;15.498;2023-04-07T03:39:28;97006.75;;;-1.04;70.00
57442;BME280;43284;47.042;15.498;2023-04-07T03:41:53;97005.03;;;-1.04;70.10
57442;BME280;43284;47.042;15.498;2023-04-07T03:44:20;97006.72;;;-0.98;70.21
57442;BME280;43284;47.042;15.498;2023-04-07T03:46:45;97001.53;;;-0.90;69.63
57442;BME280;43284;47.042;15.498;2023-04-07T03:49:13;97001.50;;;-0.84;68.73
57442;BME280;43284;47.042;15.498;2023-04-07T03:51:38;97006.66;;;-0.90;69.11
57442;BME280;43284;47.042;15.498;2023-04-07T03:54:04;97008.38;;;-0.86;70.08
57442;BME280;43284;47.042;15.498;2023-04-07T03:56:30;97009.22;;;-0.84;69.28
57442;BME280;43284;47.042;15.498;2023-04-07T03:58:55;96998.94;;;-0.82;69.64
57442;BME280;43284;47.042;15.498;2023-04-07T04:01:21;97007.47;;;-0.79;69.83
57442;BME280;43284;47.042;15.498;2023-04-07T04:03:48;97007.53;;;-0.85;69.44
57442;BME280;43284;47.042;15.498;2023-04-07T04:06:13;97010.94;;;-0.86;69.82
57442;BME280;43284;47.042;15.498;2023-04-07T04:08:39;97005.78;;;-0.83;69.44
57442;BME280;43284;47.042;15.498;2023-04-07T04:11:04;97005.75;;;-0.78;70.26
57442;BME280;43284;47.042;15.498;2023-04-07T04:13:30;97004.91;;;-0.82;69.06
57442;BME280;43284;47.042;15.498;2023-04-07T04:15:56;97004.09;;;-0.87;69.26
57442;BME280;43284;47.042;15.498;2023-04-07T04:18:22;96996.34;;;-0.79;69.29
57442;BME280;43284;47.042;15.498;2023-04-07T04:20:47;97005.72;;;-0.74;69.07
57442;BME280;43284;47.042;15.498;2023-04-07T04:23:14;97004.88;;;-0.77;69.44
57442;BME280;43284;47.042;15.498;2023-04-07T04:25:39;96995.44;;;-0.72;70.40
57442;BME280;43284;47.042;15.498;2023-04-07T04:28:05;97003.97;;;-0.67;69.91
57442;BME280;43284;47.042;15.498;2023-04-07T04:30:31;97005.69;;;-0.68;68.99
57442;BME280;43284;47.042;15.498;2023-04-07T04:32:56;97005.69;;;-0.68;68.52
57442;BME280;43284;47.042;15.498;2023-04-07T04:35:22;97007.38;;;-0.68;69.36
57442;BME280;43284;47.042;15.498;2023-04-07T04:37:47;97005.69;;;-0.72;70.30
57442;BME280;43284;47.042;15.498;2023-04-07T04:40:13;97006.56;;;-0.72;69.96
57442;BME280;43284;47.042;15.498;2023-04-07T04:42:39;97009.09;;;-0.69;69.86
57442;BME280;43284;47.042;15.498;2023-04-07T04:45:05;97008.25;;;-0.69;69.51
57442;BME280;43284;47.042;15.498;2023-04-07T04:47:30;97007.34;;;-0.64;69.45
57442;BME280;43284;47.042;15.498;2023-04-07T04:49:56;97012.47;;;-0.59;69.88
57442;BME280;43284;47.042;15.498;2023-04-07T04:52:22;97006.44;;;-0.55;69.55
57442;BME280;43284;47.042;15.498;2023-04-07T04:54:47;97012.41;;;-0.50;68.99
57442;BME280;43284;47.042;15.498;2023-04-07T04:57:12;97013.22;;;-0.45;69.57
57442;BME280;43284;47.042;15.498;2023-04-07T04:59:38;97018.31;;;-0.40;69.79
57442;BME280;43284;47.042;15.498;2023-04-07T05:02:04;97022.56;;;-0.36;69.55
57442;BME280;43284;47.042;15.498;2023-04-07T05:04:30;97018.31;;;-0.37;69.46
57442;BME280;43284;47.042;15.498;2023-04-07T05:06:55;97013.97;;;-0.32;69.02
57442;BME280;43284;47.042;15.498;2023-04-07T05:09:21;97021.63;;;-0.26;69.47
57442;BME280;43284;47.042;15.498;2023-04-07T05:11:46;97022.44;;;-0.22;69.84
57442;BME280;43284;47.042;15.498;2023-04-07T05:14:12;97017.28;;;-0.17;69.80
57442;BME280;43284;47.042;15.498;2023-04-07T05:16:37;97022.34;;;-0.11;70.69
57442;BME280;43284;47.042;15.498;2023-04-07T05:19:03;97024.88;;;-0.07;70.07
57442;BME280;43284;47.042;15.498;2023-04-07T05:21:28;97020.56;;;0.00;70.52
57442;BME280;43284;47.042;15.498;2023-04-07T05:23:54;97023.09;;;0.05;70.35
57442;BME280;43284;47.042;15.498;2023-04-07T05:26:20;97017.88;;;0.12;70.44
57442;BME280;43284;47.042;15.498;2023-04-07T05:28:45;97015.25;;;0.17;70.30
57442;BME280;43284;47.042;15.498;2023-04-07T05:31:11;97022.91;;;0.22;68.90
57442;BME280;43284;47.042;15.498;2023-04-07T05:33:37;97023.78;;;0.20;69.45
57442;BME280;43284;47.042;15.498;2023-04-07T05:36:02;97024.63;;;0.21;69.47
57442;BME280;43284;47.042;15.498;2023-04-07T05:38:28;97026.31;;;0.27;69.67
57442;BME280;43284;47.042;15.498;2023-04-07T05:40:53;97025.38;;;0.34;69.88
57442;BME280;43284;47.042;15.498;2023-04-07T05:43:19;97022.75;;;0.37;68.55
57442;BME280;43284;47.042;15.498;2023-04-07T05:45:44;97020.13;;;0.41;69.13
57442;BME280;43284;47.042;15.498;2023-04-07T05:48:10;97025.22;;;0.48;69.98
57442;BME280;43284;47.042;15.498;2023-04-07T05:50:35;97026.09;;;0.45;69.32
57442;BME280;43284;47.042;15.498;2023-04-07T05:53:01;97024.31;;;0.50;68.94
57442;BME280;43284;47.042;15.498;2023-04-07T05:55:26;97026.00;;;0.54;69.21
57442;BME280;43284;47.042;15.498;2023-04-07T05:57:52;97021.72;;;0.55;68.28
57442;BME280;43284;47.042;15.498;2023-04-07T06:00:18;97024.19;;;0.64;68.41
57442;BME280;43284;47.042;15.498;2023-04-07T06:02:44;97022.59;;;0.52;70.11
57442;BME280;43284;47.042;15.498;2023-04-07T06:05:10;97025.09;;;0.60;69.43
57442;BME280;43284;47.042;15.498;2023-04-07T06:07:35;97025.91;;;0.64;69.12
57442;BME280;43284;47.042;15.498;2023-04-07T06:10:01;97019.88;;;0.65;68.81
57442;BME280;43284;47.042;15.498;2023-04-07T06:12:26;97019.88;;;0.66;68.28
57442;BME280;43284;47.042;15.498;2023-04-07T06:14:53;97017.19;;;0.75;68.63
57442;BME280;43284;47.042;15.498;2023-04-07T06:17:19;97017.94;;;0.84;68.12
57442;BME280;43284;47.042;15.498;2023-04-07T06:19:45;97023.84;;;0.92;67.83
57442;BME280;43284;47.042;15.498;2023-04-07T06:22:11;97016.03;;;0.98;67.51
57442;BME280;43284;47.042;15.498;2023-04-07T06:24:36;97021.06;;;1.07;66.47
57442;BME280;43284;47.042;15.498;2023-04-07T06:27:02;97016.66;;;1.17;65.53
57442;BME280;43284;47.042;15.498;2023-04-07T06:29:28;97012.28;;;1.23;64.82
57442;BME280;43284;47.042;15.498;2023-04-07T06:31:54;97013.88;;;1.32;63.80
57442;BME280;43284;47.042;15.498;2023-04-07T06:34:20;97012.88;;;1.42;64.15
57442;BME280;43284;47.042;15.498;2023-04-07T06:36:46;97011.81;;;1.54;64.92
57442;BME280;43284;47.042;15.498;2023-04-07T06:39:11;97009.91;;;1.67;64.95
57442;BME280;43284;47.042;15.498;2023-04-07T06:41:37;97015.72;;;1.78;64.71
57442;BME280;43284;47.042;15.498;2023-04-07T06:44:03;97006.97;;;1.89;63.71
57442;BME280;43284;47.042;15.498;2023-04-07T06:46:29;97002.50;;;1.98;62.75
57442;BME280;43284;47.042;15.498;2023-04-07T06:48:55;97001.50;;;2.07;63.17
57442;BME280;43284;47.042;15.498;2023-04-07T06:51:20;97002.22;;;2.17;62.48
57442;BME280;43284;47.042;15.498;2023-04-07T06:53:46;97003.69;;;2.29;63.40
57442;BME280;43284;47.042;15.498;2023-04-07T06:56:13;97002.66;;;2.39;62.51
57442;BME280;43284;47.042;15.498;2023-04-07T06:58:38;96995.59;;;2.48;62.62
57442;BME280;43284;47.042;15.498;2023-04-07T07:01:05;96995.34;;;2.62;62.22
57442;BME280;43284;47.042;15.498;2023-04-07T07:03:31;97002.78;;;2.76;61.15
57442;BME280;43284;47.042;15.498;2023-04-07T07:05:57;96991.22;;;2.96;62.22
57442;BME280;43284;47.042;15.498;2023-04-07T07:08:24;96995.91;;;3.17;59.90
57442;BME280;43284;47.042;15.498;2023-04-07T07:10:50;96992.13;;;3.32;59.43
57442;BME280;43284;47.042;15.498;2023-04-07T07:13:18;96988.44;;;3.78;60.53
57442;BME280;43284;47.042;15.498;2023-04-07T07:15:44;96988.94;;;3.94;58.32
57442;BME280;43284;47.042;15.498;2023-04-07T07:18:10;96985.88;;;4.12;57.38
57442;BME280;43284;47.042;15.498;2023-04-07T07:20:36;96991.28;;;4.38;56.84
57442;BME280;43284;47.042;15.498;2023-04-07T07:23:02;96986.66;;;4.49;56.92
57442;BME280;43284;47.042;15.498;2023-04-07T07:25:28;96982.13;;;4.87;54.58
57442;BME280;43284;47.042;15.498;2023-04-07T07:27:54;96976.63;;;5.27;52.44
57442;BME280;43284;47.042;15.498;2023-04-07T07:30:20;96975.69;;;5.30;52.27
57442;BME280;43284;47.042;15.498;2023-04-07T07:32:46;96975.53;;;5.34;51.66
57442;BME280;43284;47.042;15.498;2023-04-07T07:35:12;96980.63;;;5.37;52.25
57442;BME280;43284;47.042;15.498;2023-04-07T07:37:37;96979.56;;;5.71;51.86
57442;BME280;43284;47.042;15.498;2023-04-07T07:40:03;96977.25;;;5.90;50.34
57442;BME280;43284;47.042;15.498;2023-04-07T07:42:29;96973.50;;;5.99;47.15
57442;BME280;43284;47.042;15.498;2023-04-07T07:44:55;96973.53;;;6.24;49.16
57442;BME280;43284;47.042;15.498;2023-04-07T07:47:21;96972.00;;;6.44;49.79
57442;BME280;43284;47.042;15.498;2023-04-07T07:49:47;96970.31;;;6.66;48.15
57442;BME280;43284;47.042;15.498;2023-04-07T07:52:12;96971.72;;;6.98;46.76
57442;BME280;43284;47.042;15.498;2023-04-07T07:54:38;96971.34;;;7.09;45.60
57442;BME280;43284;47.042;15.498;2023-04-07T07:57:03;96967.53;;;7.18;43.42
57442;BME280;43284;47.042;15.498;2023-04-07T07:59:30;96963.19;;;7.18;44.45
57442;BME280;43284;47.042;15.498;2023-04-07T08:01:56;96966.81;;;7.14;45.08
57442;BME280;43284;47.042;15.498;2023-04-07T08:04:22;96957.44;;;7.32;45.81
57442;BME280;43284;47.042;15.498;2023-04-07T08:06:49;96960.50;;;7.66;44.17
57442;BME280;43284;47.042;15.498;2023-04-07T08:09:15;96949.13;;;7.89;45.92
57442;BME280;43284;47.042;15.498;2023-04-07T08:11:41;96954.50;;;8.27;42.62
57442;BME280;43284;47.042;15.498;2023-04-07T08:14:06;96944.38;;;8.39;40.69
57442;BME280;43284;47.042;15.498;2023-04-07T08:16:32;96944.50;;;8.57;41.69
57442;BME280;43284;47.042;15.498;2023-04-07T08:18:57;96949.63;;;8.60;38.28
57442;BME280;43284;47.042;15.498;2023-04-07T08:21:23;96931.69;;;8.73;35.51
57442;BME280;43284;47.042;15.498;2023-04-07T08:23:48;96930.78;;;8.93;36.43
57442;BME280;43284;47.042;15.498;2023-04-07T08:26:14;96928.66;;;9.01;36.94
57442;BME280;43284;47.042;15.498;2023-04-07T08:28:39;96920.91;;;8.99;34.27
57442;BME280;43284;47.042;15.498;2023-04-07T08:31:06;96921.97;;;8.95;33.11
57442;BME280;43284;47.042;15.498;2023-04-07T08:33:31;96920.31;;;9.12;35.51
57442;BME280;43284;47.042;15.498;2023-04-07T08:35:57;96913.69;;;9.23;34.19
57442;BME280;43284;47.042;15.498;2023-04-07T08:38:22;96926.41;;;9.48;34.40
57442;BME280;43284;47.042;15.498;2023-04-07T08:40:56;96922.38;;;9.60;31.10
57442;BME280;43284;47.042;15.498;2023-04-07T08:43:25;96916.09;;;9.28;31.14
57442;BME280;43284;47.042;15.498;2023-04-07T08:45:52;96909.38;;;9.22;33.56
57442;BME280;43284;47.042;15.498;2023-04-07T08:48:21;96915.50;;;9.40;33.12
57442;BME280;43284;47.042;15.498;2023-04-07T08:50:48;96910.28;;;9.40;33.84
57442;BME280;43284;47.042;15.498;2023-04-07T08:53:22;96911.13;;;9.41;33.60
57442;BME280;43284;47.042;15.498;2023-04-07T08:55:47;96906.84;;;9.57;33.70
57442;BME280;43284;47.042;15.498;2023-04-07T08:58:14;96907.06;;;9.53;32.88
57442;BME280;43284;47.042;15.498;2023-04-07T09:00:43;96906.97;;;9.73;33.46
57442;BME280;43284;47.042;15.498;2023-04-07T09:03:10;96906.03;;;10.09;34.93
57442;BME280;43284;47.042;15.498;2023-04-07T09:05:36;96902.44;;;10.29;33.73
57442;BME280;43284;47.042;15.498;2023-04-07T09:08:03;96902.25;;;10.49;34.67
57442;BME280;43284;47.042;15.498;2023-04-07T09:10:28;96897.81;;;10.67;29.99
57442;BME280;43284;47.042;15.498;2023-04-07T09:12:54;96897.13;;;10.30;30.88
57442;BME280;43284;47.042;15.498;2023-04-07T09:15:20;96894.13;;;10.71;31.86
57442;BME280;43284;47.042;15.498;2023-04-07T09:17:47;96893.38;;;11.01;31.22
57442;BME280;43284;47.042;15.498;2023-04-07T09:20:12;96894.81;;;11.23;32.32
57442;BME280;43284;47.042;15.498;2023-04-07T09:22:42;96892.78;;;10.96;30.32
57442;BME280;43284;47.042;15.498;2023-04-07T09:25:18;96889.34;;;11.11;31.20
57442;BME280;43284;47.042;15.498;2023-04-07T09:27:57;96883.75;;;10.86;30.50
57442;BME280;43284;47.042;15.498;2023-04-07T09:30:24;96885.34;;;10.88;28.68
57442;BME280;43284;47.042;15.498;2023-04-07T09:32:50;96886.03;;;10.92;28.95
57442;BME280;43284;47.042;15.498;2023-04-07T09:35:16;96884.78;;;10.83;29.84
57442;BME280;43284;47.042;15.498;2023-04-07T09:37:42;96890.59;;;10.88;30.15
57442;BME280;43284;47.042;15.498;2023-04-07T09:40:08;96879.03;;;10.77;28.37
57442;BME280;43284;47.042;15.498;2023-04-07T09:42:34;96883.38;;;10.60;28.94
57442;BME280;43284;47.042;15.498;2023-04-07T09:45:02;96878.44;;;10.71;29.26
57442;BME280;43284;47.042;15.498;2023-04-07T09:47:30;96874.88;;;10.88;29.22
57442;BME280;43284;47.042;15.498;2023-04-07T09:49:56;96878.59;;;10.84;29.15
57442;BME280;43284;47.042;15.498;2023-04-07T09:52:51;96876.56;;;11.21;28.99
57442;BME280;43284;47.042;15.498;2023-04-07T09:55:20;96870.66;;;11.02;29.37
57442;BME280;43284;47.042;15.498;2023-04-07T09:57:48;96873.06;;;11.06;30.82
57442;BME280;43284;47.042;15.498;2023-04-07T10:00:14;96866.06;;;11.07;28.27
57442;BME280;43284;47.042;15.498;2023-04-07T10:02:40;96868.34;;;11.13;30.16
57442;BME280;43284;47.042;15.498;2023-04-07T10:05:08;96870.38;;;11.54;30.80
57442;BME280;43284;47.042;15.498;2023-04-07T10:07:34;96865.91;;;11.86;29.35
57442;BME280;43284;47.042;15.498;2023-04-07T10:09:59;96862.97;;;12.07;32.91
57442;BME280;43284;47.042;15.498;2023-04-07T10:12:26;96854.34;;;11.90;27.69
57442;BME280;43284;47.042;15.498;2023-04-07T10:14:52;96856.00;;;11.91;27.05
57442;BME280;43284;47.042;15.498;2023-04-07T10:17:19;96853.03;;;11.98;28.93
57442;BME280;43284;47.042;15.498;2023-04-07T10:19:47;96848.59;;;12.28;28.49
57442;BME280;43284;47.042;15.498;2023-04-07T10:22:13;96854.94;;;11.80;27.82
57442;BME280;43284;47.042;15.498;2023-04-07T10:27:11;96847.97;;;11.64;29.46
57442;BME280;43284;47.042;15.498;2023-04-07T10:29:40;96855.09;;;11.92;27.57
57442;BME280;43284;47.042;15.498;2023-04-07T10:32:06;96851.19;;;12.00;27.48
57442;BME280;43284;47.042;15.498;2023-04-07T10:34:58;96846.69;;;12.02;28.90
57442;BME280;43284;47.042;15.498;2023-04-07T10:37:25;96845.47;;;11.93;26.59
57442;BME280;43284;47.042;15.498;2023-04-07T10:42:44;96838.41;;;12.38;28.84
57442;BME280;43284;47.042;15.498;2023-04-07T10:45:11;96837.94;;;12.31;26.70
57442;BME280;43284;47.042;15.498;2023-04-07T10:50:27;96830.25;;;12.28;28.06
57442;BME280;43284;47.042;15.498;2023-04-07T10:53:13;96834.94;;;12.38;26.93
57442;BME280;43284;47.042;15.498;2023-04-07T10:55:43;96828.72;;;12.67;28.77
57442;BME280;43284;47.042;15.498;2023-04-07T10:58:17;96821.78;;;12.81;28.53
57442;BME280;43284;47.042;15.498;2023-04-07T11:03:32;96828.69;;;13.23;28.66
57442;BME280;43284;47.042;15.498;2023-04-07T11:06:16;96818.75;;;13.01;27.06
57442;BME280;43284;47.042;15.498;2023-04-07T11:08:44;96822.88;;;13.18;28.17
57442;BME280;43284;47.042;15.498;2023-04-07T11:11:11;96816.94;;;13.43;27.73
57442;BME280;43284;47.042;15.498;2023-04-07T11:16:14;96811.50;;;13.59;27.51
57442;BME280;43284;47.042;15.498;2023-04-07T11:18:41;96803.84;;;13.29;26.05
57442;BME280;43284;47.042;15.498;2023-04-07T11:21:07;96809.22;;;13.67;27.77
57442;BME280;43284;47.042;15.498;2023-04-07T11:23:40;96802.47;;;13.23;25.55
57442;BME280;43284;47.042;15.498;2023-04-07T11:26:07;96801.72;;;13.21;26.90
57442;BME280;43284;47.042;15.498;2023-04-07T11:28:33;96800.00;;;13.20;27.26
57442;BME280;43284;47.042;15.498;2023-04-07T11:30:59;96801.41;;;13.53;28.06
57442;BME280;43284;47.042;15.498;2023-04-07T11:33:30;96791.78;;;13.79;28.27
57442;BME280;43284;47.042;15.498;2023-04-07T11:35:57;96792.00;;;13.89;29.06
57442;BME280;43284;47.042;15.498;2023-04-07T11:38:25;96790.84;;;13.67;26.42
57442;BME280;43284;47.042;15.498;2023-04-07T11:40:52;96791.47;;;13.84;27.54
57442;BME280;43284;47.042;15.498;2023-04-07T11:43:25;96780.41;;;14.30;26.65
57442;BME280;43284;47.042;15.498;2023-04-07T11:46:12;96780.00;;;14.23;27.37
57442;BME280;43284;47.042;15.498;2023-04-07T11:48:39;96777.53;;;14.71;27.75
57442;BME280;43284;47.042;15.498;2023-04-07T11:51:17;96769.06;;;14.29;25.63
57442;BME280;43284;47.042;15.498;2023-04-07T11:53:43;96770.09;;;14.52;25.85
57442;BME280;43284;47.042;15.498;2023-04-07T11:56:12;96770.56;;;14.20;25.21
57442;BME280;43284;47.042;15.498;2023-04-07T11:58:51;96766.59;;;14.52;26.01
57442;BME280;43284;47.042;15.498;2023-04-07T12:01:18;96754.50;;;14.62;26.47
57442;BME280;43284;47.042;15.498;2023-04-07T12:04:02;96761.31;;;14.77;24.96
57442;BME280;43284;47.042;15.498;2023-04-07T12:06:30;96757.16;;;14.62;25.28
57442;BME280;43284;47.042;15.498;2023-04-07T12:08:59;96757.28;;;14.35;25.30
57442;BME280;43284;47.042;15.498;2023-04-07T12:11:25;96763.34;;;14.74;25.60
57442;BME280;43284;47.042;15.498;2023-04-07T12:13:51;96751.22;;;14.09;24.21
57442;BME280;43284;47.042;15.498;2023-04-07T12:16:17;96756.06;;;14.15;23.40
57442;BME280;43284;47.042;15.498;2023-04-07T12:18:43;96752.47;;;14.29;24.62
57442;BME280;43284;47.042;15.498;2023-04-07T12:21:09;96746.78;;;14.35;25.00
57442;BME280;43284;47.042;15.498;2023-04-07T12:23:34;96744.97;;;14.35;25.23
57442;BME280;43284;47.042;15.498;2023-04-07T12:26:00;96745.25;;;14.93;26.15
57442;BME280;43284;47.042;15.498;2023-04-07T12:28:26;96741.03;;;15.15;27.74
57442;BME280;43284;47.042;15.498;2023-04-07T12:30:53;96735.56;;;15.18;23.77
57442;BME280;43284;47.042;15.498;2023-04-07T12:33:19;96736.34;;;15.31;24.42
57442;BME280;43284;47.042;15.498;2023-04-07T12:35:44;96730.88;;;15.81;24.49
57442;BME280;43284;47.042;15.498;2023-04-07T12:38:10;96734.84;;;15.62;24.20
57442;BME280;43284;47.042;15.498;2023-04-07T12:40:36;96730.97;;;15.79;24.62
57442;BME280;43284;47.042;15.498;2023-04-07T12:43:05;96730.38;;;15.76;22.76
57442;BME280;43284;47.042;15.498;2023-04-07T12:45:31;96729.91;;;15.47;23.12
57442;BME280;43284;47.042;15.498;2023-04-07T12:47:57;96728.81;;;15.38;23.19
57442;BME280;43284;47.042;15.498;2023-04-07T12:50:23;96730.75;;;15.47;23.20
57442;BME280;43284;47.042;15.498;2023-04-07T12:52:53;96734.13;;;15.49;23.91
57442;BME280;43284;47.042;15.498;2023-04-07T12:55:19;96727.94;;;15.61;24.59
57442;BME280;43284;47.042;15.498;2023-04-07T12:57:45;96726.81;;;15.53;23.79
57442;BME280;43284;47.042;15.498;2023-04-07T13:00:12;96728.56;;;15.06;22.68
57442;BME280;43284;47.042;15.498;2023-04-07T13:02:38;96728.81;;;15.38;23.17
57442;BME280;43284;47.042;15.498;2023-04-07T13:05:04;96730.31;;;15.64;23.58
57442;BME280;43284;47.042;15.498;2023-04-07T13:07:30;96727.91;;;15.26;22.16
57442;BME280;43284;47.042;15.498;2023-04-07T13:09:55;96726.50;;;15.69;22.83
57442;BME280;43284;47.042;15.498;2023-04-07T13:12:22;96718.75;;;15.43;21.41
57442;BME280;43284;47.042;15.498;2023-04-07T13:14:48;96723.13;;;15.55;22.71
57442;BME280;43284;47.042;15.498;2023-04-07T13:17:13;96719.88;;;15.63;24.43
57442;BME280;43284;47.042;15.498;2023-04-07T13:19:39;96708.59;;;15.96;24.76
57442;BME280;43284;47.042;15.498;2023-04-07T13:22:05;96717.44;;;16.06;23.27
57442;BME280;43284;47.042;15.498;2023-04-07T13:24:30;96719.97;;;16.08;25.68